WetterOnline ( https://www.wetteronline.de )

Wetter aktuell Stöhrhaus

Aktuelles Wetter: Salzburg Flughafen (450m)

6-stündlich | Neueste Meldungen
Ortszeit Temperatur Wetter
Mo, 29.11. 19:00 0.6° C bedeckt
Mo, 29.11. 13:00 1.0° C leichter Schneefall
Mo, 29.11. 7:00 -0.7° C bewölkt
Mo, 29.11. 1:00 -0.4° C leichter Schneefall
So, 28.11. 19:00 -0.4° C bewölkt
So, 28.11. 13:00 0.8° C bewölkt
So, 28.11. 7:00 -0.2° C Schneefall
So, 28.11. 1:00 0.7° C bewölkt
Ortszeit Temperatur Wetter
Mo, 29.11. 22:20 0° C bewölkt
Mo, 29.11. 22:00 -0.3° C bedeckt
Mo, 29.11. 21:50 0° C bewölkt
Mo, 29.11. 21:20 -1° C bewölkt
Mo, 29.11. 21:00 -1.0° C bedeckt
Mo, 29.11. 20:50 -1° C bewölkt
Mo, 29.11. 20:20 -1° C leichter Schneefall
Mo, 29.11. 20:00 0.0° C leichte Schneeschauer
Mo, 29.11. 19:20 0° C bewölkt
Mo, 29.11. 19:00 0.6° C bedeckt
Ortszeit Relative Feuchte Sichtweite
Mo, 29.11. 19:00 70% 50 km
Mo, 29.11. 13:00 82% 24 km
Mo, 29.11. 7:00 92% 14 km
Mo, 29.11. 1:00 100% 3.5 km
So, 28.11. 19:00 100% 13 km
So, 28.11. 13:00 94% 26 km
So, 28.11. 7:00 100% 2.1 km
So, 28.11. 1:00 96% 20 km
Ortszeit Relative Feuchte Sichtweite
Mo, 29.11. 22:20 74% >10 km
Mo, 29.11. 22:00 78% 65 km
Mo, 29.11. 21:50 74% >10 km
Mo, 29.11. 21:20 86% >10 km
Mo, 29.11. 21:00 87% 45 km
Mo, 29.11. 20:50 86% >10 km
Mo, 29.11. 20:20 86% 8 km
Mo, 29.11. 20:00 75% 7 km
Mo, 29.11. 19:20 74% >10 km
Mo, 29.11. 19:00 70% 50 km
Ortszeit Niederschlagsmenge Niederschlagsart
Mo, 29.11. 19:00 0.1 l/m2 in 12 Std. -
Mo, 29.11. 13:00 0.1 l/m2 in 6 Std. -
Mo, 29.11. 7:00 2 l/m2 in 12 Std. -
Mo, 29.11. 1:00 2 l/m2 in 6 Std. -
So, 28.11. 19:00 4 l/m2 in 12 Std. -
So, 28.11. 13:00 4 l/m2 in 6 Std. -
So, 28.11. 7:00 8 l/m2 in 12 Std. -
So, 28.11. 1:00 0.2 l/m2 in 6 Std. -
Ortszeit Niederschlagsmenge Niederschlagsart
Mo, 29.11. 22:20 keine Meldung -
Mo, 29.11. 22:00 0.0 l/m2 in 1 Std. -
Mo, 29.11. 21:50 keine Meldung -
Mo, 29.11. 21:20 keine Meldung -
Mo, 29.11. 21:00 0.1 l/m2 in 1 Std. -
Mo, 29.11. 20:50 keine Meldung -
Mo, 29.11. 20:20 keine Meldung -
Mo, 29.11. 20:00 0.1 l/m2 in 1 Std. -
Mo, 29.11. 19:20 keine Meldung -
Mo, 29.11. 19:00 0.1 l/m2 in 1 Std. -
Ortszeit Stärke Spitze Richtung
km/h Bft. km/h Grad Sektor
Mo, 29.11. 19:00 14 3 47 280° W
Mo, 29.11. 13:00 18 3 - 300° NW
Mo, 29.11. 7:00 7 2 - - -
Mo, 29.11. 1:00 7 2 - - -
So, 28.11. 19:00 4 1 - - -
So, 28.11. 13:00 4 1 - - -
So, 28.11. 7:00 4 1 - - -
So, 28.11. 1:00 7 2 - - -
Ortszeit Stärke Spitze Richtung
km/h Bft. km/h Grad Sektor
Mo, 29.11. 22:20 9 2 - 260° W
Mo, 29.11. 22:00 14 3 - 220° SW
Mo, 29.11. 21:50 13 3 - 220° SW
Mo, 29.11. 21:20 11 2 - 210° SW
Mo, 29.11. 21:00 11 2 - - -
Mo, 29.11. 20:50 9 2 - 230° SW
Mo, 29.11. 20:20 7 2 - 250° W
Mo, 29.11. 20:00 14 3 - 260° W
Mo, 29.11. 19:20 15 3 - 260° W
Mo, 29.11. 19:00 14 3 47 280° W
Ortszeit Untergrenze Bedeckung Gattung
total tief tief mittel hoch
Mo, 29.11. 19:00 240 m 8/8 6/8 St - -
Mo, 29.11. 13:00 360 m 7/8 5/8 Sc - -
Mo, 29.11. 7:00 270 m 7/8 5/8 St - -
Mo, 29.11. 1:00 60 m 8/8 5/8 - - -
So, 28.11. 19:00 150 m 7/8 5/8 St - -
So, 28.11. 13:00 120 m 7/8 6/8 St - -
So, 28.11. 7:00 60 m 8/8 7/8 St - -
So, 28.11. 1:00 1320 m 8/8 7/8 - - -
Ortszeit Bedeckungsgrad in Achtel und Wolkenuntergrenze
Mo, 29.11. 22:20 1-2(360m) 3-4(750m) 5-7(1080m)
Mo, 29.11. 22:00 1(420m) 3(750m) 5(1260m)
Mo, 29.11. 21:50 1-2(420m) 3-4(750m) 5-7(1260m)
Mo, 29.11. 21:20 1-2(420m) 3-4(750m) 5-7(1260m)
Mo, 29.11. 21:00 1(240m) 3(750m) 5(1200m)
Mo, 29.11. 20:50 1-2(240m) 3-4(750m) 5-7(1200m)
Mo, 29.11. 20:20 1-2(180m) 3-4(600m) 5-7(1500m)
Mo, 29.11. 20:00 1(210m) 4(540m) 6(1050m)
Mo, 29.11. 19:20 1-2(360m) 3-4(840m) 5-7(1500m)
Mo, 29.11. 19:00 1(240m) 3(600m) 6(1800m)
Ortszeit Luftdruck NN (hPa) Tendenz (hPa in 3 Std.)
Mo, 29.11. 19:00 1013 + 2,7
Mo, 29.11. 13:00 1007 + 1,2
Mo, 29.11. 7:00 1003 + 1,9
Mo, 29.11. 1:00 1000 + 0,2
So, 28.11. 19:00 999 + 0,3
So, 28.11. 13:00 998 - 0,6
So, 28.11. 7:00 998 0,0
So, 28.11. 1:00 998 - 0,8
Ortszeit Luftdruck NN (hPa) Tendenz (hPa in 3 Std.)
Mo, 29.11. 22:20 1012 keine Meldung
Mo, 29.11. 22:00 1015 + 1,6
Mo, 29.11. 21:50 1012 keine Meldung
Mo, 29.11. 21:20 1012 keine Meldung
Mo, 29.11. 21:00 1015 + 2,3
Mo, 29.11. 20:50 1012 keine Meldung
Mo, 29.11. 20:20 1012 keine Meldung
Mo, 29.11. 20:00 1014 + 2,7
Mo, 29.11. 19:20 1011 keine Meldung
Mo, 29.11. 19:00 1013 + 2,7
Ortszeit Schneehöhe (cm)
Mo, 29.11. 19:00 -
Mo, 29.11. 13:00 -
Mo, 29.11. 7:00 6
Mo, 29.11. 1:00 6
So, 28.11. 19:00 -
So, 28.11. 13:00 -
So, 28.11. 7:00 3
So, 28.11. 1:00 -
Ortszeit Schneehöhe (cm)
Mo, 29.11. 22:20 -
Mo, 29.11. 22:00 -
Mo, 29.11. 21:50 -
Mo, 29.11. 21:20 -
Mo, 29.11. 21:00 -
Mo, 29.11. 20:50 -
Mo, 29.11. 20:20 -
Mo, 29.11. 20:00 -
Mo, 29.11. 19:20 -
Mo, 29.11. 19:00 -
Link zu dieser Seite / Seite empfehlen

Das Wetter in ...